Time;durP1;ratioP1;P1;durP2;ratioP2;P2;SDS_P1;SDS_P2;PMS_P1;PMS_P2;Temp;Humidity;BMP_temperature;BMP_pressure;BME280_temperature;BME280_humidity;BME280_pressure;Samples;Min_cycle;Max_cycle;Signal;HPM_P1;HPM_P2
2022/07/25 00:00:09;;;;;;;;;;;;;;;26.36;37.78;100474.34;5065478;28;1028;-40
2022/07/25 00:02:34;;;;;;;;;;;;;;;26.27;37.34;100466.31;5064372;28;961;-40
2022/07/25 00:04:59;;;;;;;;;;;;;;;26.24;37.47;100469.34;5068072;28;1159;-40
2022/07/25 00:07:25;;;;;;;;;;;;;;;26.27;37.58;100474.41;5073150;28;1064;-40
2022/07/25 00:09:50;;;;;;;;;;;;;;;26.20;37.40;100472.59;5070679;28;1159;-40
2022/07/25 00:12:16;;;;;;;;;;;;;;;26.29;37.60;100485.00;5070712;28;1087;-41
2022/07/25 00:14:41;;;;;;;;;;;;;;;26.30;37.79;100486.66;5073444;28;1905;-40
2022/07/25 00:17:07;;;;;;;;;;;;;;;26.33;37.72;100477.41;5074308;28;1017;-40
2022/07/25 00:19:32;;;;;;;;;;;;;;;26.47;38.16;100487.38;5071541;28;2408;-40
2022/07/25 00:21:57;;;;;;;;;;;;;;;26.58;37.57;100483.38;5074017;28;1103;-40
2022/07/25 00:24:22;;;;;;;;;;;;;;;26.46;38.07;100485.69;5069646;28;1194;-40
2022/07/25 00:26:48;;;;;;;;;;;;;;;26.41;37.82;100486.25;5073228;28;1052;-40
2022/07/25 00:29:13;;;;;;;;;;;;;;;26.36;37.41;100488.66;5075712;28;1179;-40
2022/07/25 00:31:38;;;;;;;;;;;;;;;26.37;37.10;100487.66;5069746;28;1044;-40
2022/07/25 00:34:04;;;;;;;;;;;;;;;26.37;37.09;100481.41;5069205;28;1952;-40
2022/07/25 00:36:29;;;;;;;;;;;;;;;26.38;37.06;100486.63;5065286;28;996;-40
2022/07/25 00:38:54;;;;;;;;;;;;;;;26.36;37.52;100493.22;5065652;28;1013;-40
2022/07/25 00:41:19;;;;;;;;;;;;;;;26.44;37.32;100505.78;5068825;28;1170;-40
2022/07/25 00:43:45;;;;;;;;;;;;;;;26.54;37.71;100514.44;5073195;28;1127;-40
2022/07/25 00:46:13;;;;;;;;;;;;;;;26.57;38.24;100551.00;5072185;28;1124;-40
2022/07/25 00:48:39;;;;;;;;;;;;;;;26.61;37.90;100588.22;5071461;28;2552;-39
2022/07/25 00:51:04;;;;;;;;;;;;;;;26.59;38.14;100627.19;5070601;28;1175;-40
2022/07/25 00:53:29;;;;;;;;;;;;;;;26.60;37.74;100635.09;5069261;28;1025;-40
2022/07/25 00:55:55;;;;;;;;;;;;;;;26.53;37.22;100626.91;5069651;28;1977;-40
2022/07/25 00:58:20;;;;;;;;;;;;;;;26.51;37.10;100614.59;5046984;28;1159;-40
2022/07/25 01:00:46;;;;;;;;;;;;;;;26.48;37.17;100613.13;5069256;28;1090;-40
2022/07/25 01:03:11;;;;;;;;;;;;;;;26.53;37.26;100631.44;5065910;28;1216;-40
2022/07/25 01:05:36;;;;;;;;;;;;;;;26.56;36.86;100644.56;5072740;28;1048;-40
2022/07/25 01:08:02;;;;;;;;;;;;;;;26.54;37.28;100635.84;5071592;28;1083;-40
2022/07/25 01:10:28;;;;;;;;;;;;;;;26.65;37.96;100604.88;5074780;28;1083;-40
2022/07/25 01:12:54;;;;;;;;;;;;;;;26.67;38.04;100583.94;5064465;28;1064;-40
2022/07/25 01:15:19;;;;;;;;;;;;;;;26.65;37.61;100592.22;5074026;28;1902;-40
2022/07/25 01:17:45;;;;;;;;;;;;;;;26.64;37.17;100628.31;5070150;28;961;-40
2022/07/25 01:20:14;;;;;;;;;;;;;;;26.63;37.36;100625.78;5067345;28;2379;-40
2022/07/25 01:22:40;;;;;;;;;;;;;;;26.60;37.06;100608.13;5073124;28;1099;-40
2022/07/25 01:25:05;;;;;;;;;;;;;;;26.60;37.63;100607.28;5074448;28;1135;-40
2022/07/25 01:27:30;;;;;;;;;;;;;;;26.60;37.69;100613.53;5058958;28;977;-40
2022/07/25 01:29:56;;;;;;;;;;;;;;;26.66;38.32;100606.53;5067469;28;953;-40
2022/07/25 01:32:21;;;;;;;;;;;;;;;26.72;38.33;100595.03;5068772;28;1036;-40
2022/07/25 01:34:46;;;;;;;;;;;;;;;26.69;38.05;100584.63;5068489;28;1957;-40
2022/07/25 01:37:12;;;;;;;;;;;;;;;26.68;38.05;100604.50;5068731;28;1017;-40
2022/07/25 01:39:37;;;;;;;;;;;;;;;26.64;37.85;100587.84;5069299;28;1299;-40
2022/07/25 01:42:02;;;;;;;;;;;;;;;26.59;37.62;100574.06;5073430;28;1052;-40
2022/07/25 01:44:28;;;;;;;;;;;;;;;26.59;37.84;100581.34;5072391;28;1163;-40
2022/07/25 01:46:53;;;;;;;;;;;;;;;26.61;37.62;100565.81;5074795;28;1004;-40
2022/07/25 01:49:18;;;;;;;;;;;;;;;26.67;38.31;100573.16;5071160;28;2506;-40
2022/07/25 01:51:43;;;;;;;;;;;;;;;26.70;38.46;100575.47;5064300;28;969;-41
2022/07/25 01:54:09;;;;;;;;;;;;;;;26.81;38.35;100565.25;5069852;28;1957;-40
2022/07/25 01:56:34;;;;;;;;;;;;;;;26.67;37.60;100566.91;5070293;28;1151;-40
2022/07/25 01:58:59;;;;;;;;;;;;;;;26.61;37.33;100555.03;5062382;28;1180;-40
2022/07/25 02:01:24;;;;;;;;;;;;;;;26.50;37.05;100554.44;5062150;28;1143;-41
2022/07/25 02:03:50;;;;;;;;;;;;;;;26.47;37.67;100554.81;5073579;28;1004;-40
2022/07/25 02:06:16;;;;;;;;;;;;;;;26.49;37.32;100550.03;5062212;28;1029;-41
2022/07/25 02:08:41;;;;;;;;;;;;;;;26.47;37.48;100540.47;5077432;28;1044;-40
2022/07/25 02:11:06;;;;;;;;;;;;;;;26.48;37.63;100544.84;5078678;28;1008;-40
2022/07/25 02:13:32;;;;;;;;;;;;;;;26.59;37.99;100544.38;5060702;28;1119;-40
2022/07/25 02:15:57;;;;;;;;;;;;;;;26.72;38.24;100553.72;5071258;28;1917;-40
2022/07/25 02:18:22;;;;;;;;;;;;;;;26.75;37.95;100542.53;5070030;28;1930;-40
2022/07/25 02:20:47;;;;;;;;;;;;;;;26.76;37.15;100544.22;5076367;28;1286;-40
2022/07/25 02:23:13;;;;;;;;;;;;;;;26.68;36.75;100538.91;5072019;28;992;-40
2022/07/25 02:25:38;;;;;;;;;;;;;;;26.61;36.95;100539.66;5067777;28;973;-40
2022/07/25 02:28:03;;;;;;;;;;;;;;;26.55;37.42;100536.84;5070311;28;1044;-40
2022/07/25 02:30:29;;;;;;;;;;;;;;;26.48;37.21;100525.97;5074245;28;1063;-41
2022/07/25 02:32:54;;;;;;;;;;;;;;;26.55;37.60;100524.22;5071522;28;1020;-40
2022/07/25 02:35:20;;;;;;;;;;;;;;;26.49;37.32;100512.28;5075026;28;1902;-41
2022/07/25 02:37:45;;;;;;;;;;;;;;;26.58;37.92;100509.50;5071694;28;1230;-40
2022/07/25 02:40:10;;;;;;;;;;;;;;;26.70;38.16;100502.63;5077218;28;1062;-40
2022/07/25 02:42:36;;;;;;;;;;;;;;;26.78;37.97;100493.59;5077381;28;1171;-40
2022/07/25 02:45:01;;;;;;;;;;;;;;;26.83;38.07;100498.44;5078142;28;1375;-40
2022/07/25 02:47:26;;;;;;;;;;;;;;;26.82;37.51;100485.97;5071794;28;1031;-41
2022/07/25 02:49:53;;;;;;;;;;;;;;;26.67;36.77;100488.69;5066487;28;2396;-42
2022/07/25 02:52:18;;;;;;;;;;;;;;;26.52;36.93;100489.53;5071476;28;989;-40
2022/07/25 02:54:44;;;;;;;;;;;;;;;26.48;37.10;100485.50;5051809;28;1902;-42
2022/07/25 02:57:09;;;;;;;;;;;;;;;26.39;36.99;100484.78;5075257;28;1092;-42
2022/07/25 02:59:34;;;;;;;;;;;;;;;26.44;37.54;100479.66;5073538;28;1131;-41
2022/07/25 03:01:59;;;;;;;;;;;;;;;26.44;37.28;100476.97;5075521;28;1091;-41
2022/07/25 03:04:25;;;;;;;;;;;;;;;26.55;37.47;100482.91;5071728;28;1163;-42
2022/07/25 03:06:50;;;;;;;;;;;;;;;26.70;37.77;100474.81;5064987;28;1191;-41
2022/07/25 03:09:16;;;;;;;;;;;;;;;26.70;38.34;100464.84;5070999;28;1073;-41
2022/07/25 03:11:41;;;;;;;;;;;;;;;26.73;38.08;100464.47;5071961;28;1036;-40
2022/07/25 03:14:06;;;;;;;;;;;;;;;26.66;37.85;100455.44;5070044;28;1906;-42
2022/07/25 03:16:32;;;;;;;;;;;;;;;26.52;37.57;100452.59;5075997;28;1155;-42
2022/07/25 03:18:57;;;;;;;;;;;;;;;26.56;37.23;100450.34;5072667;28;2509;-41
2022/07/25 03:21:22;;;;;;;;;;;;;;;26.48;37.42;100448.59;5068760;28;1028;-41
2022/07/25 03:23:47;;;;;;;;;;;;;;;26.43;37.52;100439.38;5070717;28;1004;-42
2022/07/25 03:26:13;;;;;;;;;;;;;;;26.45;37.37;100438.16;5069056;28;989;-41
2022/07/25 03:28:38;;;;;;;;;;;;;;;26.46;37.39;100441.72;5070828;28;1020;-41
2022/07/25 03:31:03;;;;;;;;;;;;;;;26.62;39.30;100440.69;5071172;28;1159;-41
2022/07/25 03:33:29;;;;;;;;;;;;;;;26.70;40.47;100428.94;5075239;28;997;-41
2022/07/25 03:35:55;;;;;;;;;;;;;;;26.56;39.88;100417.16;5064231;28;1902;-40
2022/07/25 03:38:20;;;;;;;;;;;;;;;26.76;41.24;100415.53;5070388;28;1012;-40
2022/07/25 03:40:45;;;;;;;;;;;;;;;26.68;40.35;100410.25;5077084;28;1111;-40
2022/07/25 03:43:11;;;;;;;;;;;;;;;26.08;45.24;100421.84;5070127;28;969;-40
2022/07/25 03:45:36;;;;;;;;;;;;;;;26.25;44.79;100408.19;5064581;28;958;-41
2022/07/25 03:48:01;;;;;;;;;;;;;;;26.17;46.63;100401.84;5067470;28;1261;-40
2022/07/25 03:50:27;;;;;;;;;;;;;;;26.40;42.74;100395.59;5068103;28;2695;-40
2022/07/25 03:52:52;;;;;;;;;;;;;;;26.44;42.38;100392.50;5070474;28;1064;-40
2022/07/25 03:55:17;;;;;;;;;;;;;;;26.63;43.38;100393.78;5066854;28;1898;-40
2022/07/25 03:57:43;;;;;;;;;;;;;;;26.75;43.58;100396.84;5066338;28;1056;-40
2022/07/25 04:00:08;;;;;;;;;;;;;;;26.63;44.41;100424.31;5077224;28;1036;-37
2022/07/25 04:02:34;;;;;;;;;;;;;;;26.31;47.19;100430.88;5068100;28;1024;-41
2022/07/25 04:04:59;;;;;;;;;;;;;;;25.25;51.73;100452.09;5074733;28;1223;-40
2022/07/25 04:07:24;;;;;;;;;;;;;;;24.73;54.46;100459.72;5069768;28;986;-40
2022/07/25 04:09:50;;;;;;;;;;;;;;;25.99;48.86;100455.28;5068452;28;1277;-40
2022/07/25 04:12:15;;;;;;;;;;;;;;;26.06;48.46;100460.78;5073541;28;941;-40
2022/07/25 04:14:40;;;;;;;;;;;;;;;26.06;48.84;100455.41;5067392;28;1978;-41
2022/07/25 04:17:05;;;;;;;;;;;;;;;26.56;47.15;100463.81;5070752;28;1048;-39
2022/07/25 04:19:31;;;;;;;;;;;;;;;26.50;46.38;100465.44;5066337;28;2008;-40
2022/07/25 04:21:56;;;;;;;;;;;;;;;26.12;48.20;100471.69;5070873;28;981;-40
2022/07/25 04:24:21;;;;;;;;;;;;;;;26.22;48.24;100479.50;5067238;28;1143;-40
2022/07/25 04:26:47;;;;;;;;;;;;;;;26.77;46.08;100482.00;5073533;28;989;-40
2022/07/25 04:29:12;;;;;;;;;;;;;;;26.41;47.73;100493.50;5070317;28;1175;-41
2022/07/25 04:31:37;;;;;;;;;;;;;;;26.46;46.89;100499.16;5066497;28;1395;-40
2022/07/25 04:34:02;;;;;;;;;;;;;;;26.58;46.65;100502.25;5064005;28;1214;-40
2022/07/25 04:36:28;;;;;;;;;;;;;;;26.38;47.97;100500.09;5069632;28;1925;-40
2022/07/25 04:38:54;;;;;;;;;;;;;;;26.93;46.06;100500.84;5062768;28;1055;-40
2022/07/25 04:41:19;;;;;;;;;;;;;;;27.29;44.86;100504.63;5075587;28;938;-40
2022/07/25 04:43:44;;;;;;;;;;;;;;;27.50;44.24;100499.25;5068611;28;1076;-40
2022/07/25 04:46:09;;;;;;;;;;;;;;;27.44;44.54;100505.44;5062733;28;902;-40
2022/07/25 04:48:35;;;;;;;;;;;;;;;27.48;43.99;100514.81;5072608;28;1976;-40
2022/07/25 04:51:00;;;;;;;;;;;;;;;27.46;44.15;100516.06;5067937;28;989;-40
2022/07/25 04:53:25;;;;;;;;;;;;;;;27.48;44.14;100517.53;5070046;28;1032;-40
2022/07/25 04:55:51;;;;;;;;;;;;;;;27.46;44.22;100522.28;5064964;28;1967;-40
2022/07/25 04:58:16;;;;;;;;;;;;;;;27.48;44.09;100530.19;5071231;28;1144;-40
2022/07/25 05:00:41;;;;;;;;;;;;;;;27.49;43.79;100538.09;5067436;28;1065;-40
2022/07/25 05:03:07;;;;;;;;;;;;;;;27.48;43.96;100551.78;5069980;28;926;-40
2022/07/25 05:05:32;;;;;;;;;;;;;;;27.50;43.42;100552.44;5068796;28;1182;-40
2022/07/25 05:07:57;;;;;;;;;;;;;;;27.49;43.58;100546.19;5069264;28;1018;-40
2022/07/25 05:10:23;;;;;;;;;;;;;;;27.55;43.33;100555.41;5068635;28;1131;-40
2022/07/25 05:12:48;;;;;;;;;;;;;;;27.57;43.77;100569.59;5065276;28;1076;-40
2022/07/25 05:15:14;;;;;;;;;;;;;;;27.56;43.38;100569.78;5063910;28;1914;-40
2022/07/25 05:17:40;;;;;;;;;;;;;;;27.54;44.25;100583.47;5068167;28;1266;-40
2022/07/25 05:20:05;;;;;;;;;;;;;;;27.59;44.06;100593.72;5060780;28;1922;-40
2022/07/25 05:22:31;;;;;;;;;;;;;;;27.58;43.73;100600.13;5073531;28;1199;-39
2022/07/25 05:24:56;;;;;;;;;;;;;;;27.56;43.85;100607.59;5060082;28;1211;-40
2022/07/25 05:27:21;;;;;;;;;;;;;;;27.56;43.17;100608.41;5058883;28;997;-39
2022/07/25 05:29:47;;;;;;;;;;;;;;;27.60;43.46;100615.13;5074187;28;1120;-40
2022/07/25 05:32:12;;;;;;;;;;;;;;;27.60;43.58;100617.00;5068992;28;978;-39
2022/07/25 05:34:37;;;;;;;;;;;;;;;27.62;42.55;100617.66;5070852;28;1890;-39
2022/07/25 05:37:03;;;;;;;;;;;;;;;27.84;43.91;100620.41;5063331;28;1072;-39
2022/07/25 05:39:28;;;;;;;;;;;;;;;27.82;43.33;100619.75;5068929;28;1088;-39
2022/07/25 05:41:53;;;;;;;;;;;;;;;27.81;42.66;100613.50;5067427;28;1009;-40
2022/07/25 05:44:19;;;;;;;;;;;;;;;27.70;43.53;100622.97;5075062;28;1100;-39
2022/07/25 05:46:44;;;;;;;;;;;;;;;27.72;42.75;100628.19;5083245;28;965;-39
2022/07/25 05:49:09;;;;;;;;;;;;;;;27.86;42.32;100619.19;5070888;28;2134;-41
2022/07/25 05:51:35;;;;;;;;;;;;;;;27.96;42.29;100609.94;5061817;28;1036;-41
2022/07/25 05:54:00;;;;;;;;;;;;;;;28.05;41.96;100608.78;5072462;28;2134;-41
2022/07/25 05:56:25;;;;;;;;;;;;;;;28.12;42.38;100608.84;5066096;28;1905;-40
2022/07/25 05:58:51;;;;;;;;;;;;;;;28.16;41.97;100607.41;5069531;28;962;-44
2022/07/25 06:01:17;;;;;;;;;;;;;;;28.06;42.86;100604.22;5071518;28;1262;-41
2022/07/25 06:03:42;;;;;;;;;;;;;;;28.07;42.72;100606.72;5076109;28;1258;-42
2022/07/25 06:06:07;;;;;;;;;;;;;;;28.08;42.28;100602.13;5070504;28;992;-41
2022/07/25 06:08:33;;;;;;;;;;;;;;;28.18;43.32;100597.25;5074996;28;1594;-41
2022/07/25 06:10:59;;;;;;;;;;;;;;;27.97;42.62;100600.78;5072572;28;946;-39
2022/07/25 06:13:24;;;;;;;;;;;;;;;27.97;42.98;100596.22;5071572;28;985;-39
2022/07/25 06:15:50;;;;;;;;;;;;;;;28.01;43.45;100601.25;5072234;28;1906;-40
2022/07/25 06:18:15;;;;;;;;;;;;;;;28.16;42.78;100598.47;5072483;28;1421;-40
2022/07/25 06:20:40;;;;;;;;;;;;;;;28.29;42.93;100595.91;5070523;28;1135;-41
2022/07/25 06:23:05;;;;;;;;;;;;;;;28.09;42.01;100601.13;5072473;28;1009;-40
2022/07/25 06:25:31;;;;;;;;;;;;;;;27.98;42.57;100594.34;5074637;28;1076;-40
2022/07/25 06:27:56;;;;;;;;;;;;;;;28.15;42.63;100597.63;5070503;28;937;-41
2022/07/25 06:30:21;;;;;;;;;;;;;;;28.08;42.70;100594.03;5071355;28;1073;-39
2022/07/25 06:32:47;;;;;;;;;;;;;;;28.38;42.99;100599.31;5075405;28;1038;-41
2022/07/25 06:35:12;;;;;;;;;;;;;;;28.32;42.94;100602.78;5047701;28;1893;-41
2022/07/25 06:37:38;;;;;;;;;;;;;;;28.32;42.50;100589.25;5069580;28;1224;-38
2022/07/25 06:40:04;;;;;;;;;;;;;;;28.54;42.81;100573.84;5075402;28;1263;-40
2022/07/25 06:42:30;;;;;;;;;;;;;;;28.62;42.74;100588.25;5074563;28;958;-40
2022/07/25 06:44:55;;;;;;;;;;;;;;;28.55;42.61;100583.63;5075008;28;938;-41
2022/07/25 06:47:21;;;;;;;;;;;;;;;28.68;42.06;100584.75;5075385;28;992;-40
2022/07/25 06:49:46;;;;;;;;;;;;;;;28.60;41.89;100586.59;5072758;28;974;-40
2022/07/25 06:52:11;;;;;;;;;;;;;;;28.61;42.13;100592.84;5065410;28;926;-41
2022/07/25 06:54:36;;;;;;;;;;;;;;;28.65;42.05;100588.69;5069392;28;1898;-42
2022/07/25 06:57:02;;;;;;;;;;;;;;;28.72;42.22;100597.72;5075242;28;1176;-40
2022/07/25 06:59:27;;;;;;;;;;;;;;;28.59;42.00;100595.72;5069033;28;1184;-40
2022/07/25 07:01:53;;;;;;;;;;;;;;;28.62;41.63;100594.50;5070766;28;981;-38
2022/07/25 07:04:18;;;;;;;;;;;;;;;28.81;41.63;100597.56;5065434;28;851;-37
2022/07/25 07:06:43;;;;;;;;;;;;;;;28.84;41.99;100589.84;5078366;28;957;-40
2022/07/25 07:09:09;;;;;;;;;;;;;;;28.73;42.11;100602.09;5070569;28;1292;-37
2022/07/25 07:11:34;;;;;;;;;;;;;;;28.74;42.01;100600.22;5069384;28;1128;-38
2022/07/25 07:14:01;;;;;;;;;;;;;;;28.71;42.32;100608.75;5071724;28;1079;-39
2022/07/25 07:16:27;;;;;;;;;;;;;;;28.73;42.00;100601.22;5049798;28;1914;-36
2022/07/25 07:18:52;;;;;;;;;;;;;;;28.82;42.01;100605.47;5077850;28;1032;-38
2022/07/25 07:21:17;;;;;;;;;;;;;;;28.80;41.97;100604.00;5071432;28;1093;-40
2022/07/25 07:23:43;;;;;;;;;;;;;;;28.73;42.41;100610.19;5066143;28;1048;-40
2022/07/25 07:26:08;;;;;;;;;;;;;;;28.73;42.36;100606.66;5072339;28;1055;-40
2022/07/25 07:28:33;;;;;;;;;;;;;;;28.75;42.50;100606.44;5072397;28;1009;-40
2022/07/25 07:30:59;;;;;;;;;;;;;;;28.77;42.17;100621.47;5069769;28;1144;-38
2022/07/25 07:33:24;;;;;;;;;;;;;;;28.85;41.52;100613.19;5075353;28;1068;-38
2022/07/25 07:35:49;;;;;;;;;;;;;;;28.84;42.11;100600.69;5068283;28;1968;-39
2022/07/25 07:38:15;;;;;;;;;;;;;;;28.80;42.42;100612.13;5074586;28;1032;-41
2022/07/25 07:40:40;;;;;;;;;;;;;;;28.63;42.35;100609.72;5067679;28;1199;-38
2022/07/25 07:43:05;;;;;;;;;;;;;;;28.76;42.56;100614.38;5064735;28;1227;-40
2022/07/25 07:45:31;;;;;;;;;;;;;;;28.71;42.41;100609.56;5073319;28;1191;-39
2022/07/25 07:47:56;;;;;;;;;;;;;;;28.82;42.09;100613.59;5067299;28;1061;-41
2022/07/25 07:50:22;;;;;;;;;;;;;;;28.97;42.12;100604.56;5067166;28;1210;-42
2022/07/25 07:52:48;;;;;;;;;;;;;;;29.02;41.80;100604.78;5072476;28;1259;-42
2022/07/25 07:57:58;;;;;;;;;;;;;;;29.26;42.39;100618.03;5075241;28;1136;-44
2022/07/25 08:00:24;;;;;;;;;;;;;;;29.23;42.48;100619.25;5066793;28;949;-43
2022/07/25 08:02:50;;;;;;;;;;;;;;;29.27;42.28;100617.00;5069984;28;1313;-42
2022/07/25 08:05:20;;;;;;;;;;;;;;;29.33;42.36;100613.47;5068587;28;839;-42
2022/07/25 08:07:45;;;;;;;;;;;;;;;29.36;42.28;100625.78;5067768;28;957;-45
2022/07/25 08:10:10;;;;;;;;;;;;;;;29.24;42.70;100618.25;5071039;28;1191;-41
2022/07/25 08:12:38;;;;;;;;;;;;;;;29.26;42.59;100626.16;5075291;28;1036;-41
2022/07/25 08:15:04;;;;;;;;;;;;;;;29.18;42.50;100625.28;5060073;28;1906;-38
2022/07/25 08:17:29;;;;;;;;;;;;;;;29.10;42.12;100630.88;5076720;28;965;-41
2022/07/25 08:19:55;;;;;;;;;;;;;;;29.20;42.19;100630.50;5068864;28;929;-40
2022/07/25 08:22:20;;;;;;;;;;;;;;;29.19;42.12;100635.09;5072827;28;1171;-41
2022/07/25 08:24:45;;;;;;;;;;;;;;;29.28;42.03;100629.53;5065617;28;962;-41
2022/07/25 08:27:10;;;;;;;;;;;;;;;29.33;42.12;100632.44;5063799;28;1163;-40
2022/07/25 08:29:36;;;;;;;;;;;;;;;29.33;42.24;100641.41;5069420;28;1042;-40
2022/07/25 08:32:01;;;;;;;;;;;;;;;29.43;41.90;100634.78;5070229;28;945;-39
2022/07/25 08:34:26;;;;;;;;;;;;;;;29.40;42.16;100635.19;5075809;28;1890;-40
2022/07/25 08:36:52;;;;;;;;;;;;;;;29.42;41.99;100633.13;5068133;28;1008;-39
2022/07/25 08:39:17;;;;;;;;;;;;;;;29.45;42.31;100632.72;5066561;28;985;-40
2022/07/25 08:41:42;;;;;;;;;;;;;;;29.53;41.82;100631.72;5069652;28;1001;-42
2022/07/25 08:44:07;;;;;;;;;;;;;;;29.50;42.28;100630.22;5065492;28;1068;-38
2022/07/25 08:46:33;;;;;;;;;;;;;;;29.39;42.28;100630.81;5071918;28;988;-39
2022/07/25 08:48:58;;;;;;;;;;;;;;;29.49;42.41;100630.44;5068918;28;1001;-39
2022/07/25 08:51:24;;;;;;;;;;;;;;;29.56;42.25;100623.19;5045182;28;1171;-39
2022/07/25 08:53:49;;;;;;;;;;;;;;;29.50;42.25;100626.69;5051366;28;1046;-40
2022/07/25 08:56:14;;;;;;;;;;;;;;;29.56;42.46;100629.41;5068875;28;1901;-40
2022/07/25 08:58:40;;;;;;;;;;;;;;;29.62;42.12;100621.53;5073289;28;992;-40
2022/07/25 09:01:06;;;;;;;;;;;;;;;29.65;42.36;100629.25;5070496;28;989;-39
2022/07/25 09:03:32;;;;;;;;;;;;;;;29.52;42.33;100627.31;5068282;28;1044;-39
2022/07/25 09:05:57;;;;;;;;;;;;;;;29.46;42.74;100620.84;5070688;28;1230;-40
2022/07/25 09:08:22;;;;;;;;;;;;;;;29.45;42.91;100628.13;5064532;28;1117;-38
2022/07/25 09:10:48;;;;;;;;;;;;;;;29.57;42.50;100627.53;5067719;28;981;-42
2022/07/25 09:13:14;;;;;;;;;;;;;;;29.76;42.23;100625.16;5068849;28;989;-41
2022/07/25 09:15:49;;;;;;;;;;;;;;;29.71;42.33;100631.19;5062817;28;1917;-41
2022/07/25 09:18:15;;;;;;;;;;;;;;;29.82;42.24;100636.00;5066005;28;857;-41
2022/07/25 09:20:49;;;;;;;;;;;;;;;29.81;44.25;100637.03;5074409;28;1190;-41
2022/07/25 09:23:26;;;;;;;;;;;;;;;29.71;44.61;100633.91;5072476;28;1183;-41
2022/07/25 09:25:51;;;;;;;;;;;;;;;29.75;44.54;100635.13;5069426;28;1112;-42
2022/07/25 09:28:17;;;;;;;;;;;;;;;29.69;45.26;100642.22;5058945;28;1013;-42
2022/07/25 09:30:55;;;;;;;;;;;;;;;29.64;45.91;100636.59;5065035;28;981;-41
2022/07/25 09:33:21;;;;;;;;;;;;;;;29.58;46.73;100642.75;5069849;28;1016;-41
2022/07/25 09:35:46;;;;;;;;;;;;;;;29.63;46.15;100642.22;5070007;28;1978;-41
2022/07/25 09:38:13;;;;;;;;;;;;;;;29.67;46.21;100641.59;5070958;28;1203;-41
2022/07/25 09:40:38;;;;;;;;;;;;;;;29.58;46.30;100635.47;5070171;28;984;-41
2022/07/25 09:43:04;;;;;;;;;;;;;;;29.66;46.30;100639.09;5072141;28;1112;-41
2022/07/25 09:45:29;;;;;;;;;;;;;;;29.62;46.33;100641.38;5045862;28;899;-41
2022/07/25 09:47:56;;;;;;;;;;;;;;;29.62;46.00;100638.66;5062946;28;1319;-42
2022/07/25 09:50:21;;;;;;;;;;;;;;;26.96;51.84;100632.75;5067925;28;868;-41
2022/07/25 09:52:47;;;;;;;;;;;;;;;22.30;56.25;100626.44;5067245;28;1120;-39
2022/07/25 09:55:15;;;;;;;;;;;;;;;20.66;57.13;100626.69;5058329;28;1949;-42
2022/07/25 09:57:40;;;;;;;;;;;;;;;20.03;57.69;100618.97;5070634;28;922;-40
2022/07/25 10:00:06;;;;;;;;;;;;;;;20.84;60.69;100618.78;5069079;28;1202;-39
2022/07/25 10:02:40;;;;;;;;;;;;;;;23.88;51.27;100616.66;5066211;28;1139;-42
2022/07/25 10:05:05;;;;;;;;;;;;;;;26.53;44.41;100626.06;5067584;28;1012;-43
2022/07/25 10:07:31;;;;;;;;;;;;;;;27.73;42.95;100619.88;5069286;28;1257;-44
2022/07/25 10:09:56;;;;;;;;;;;;;;;28.27;41.31;100621.44;5048483;28;1125;-42
2022/07/25 10:12:22;;;;;;;;;;;;;;;28.65;41.14;100621.19;5063220;28;1135;-40
2022/07/25 10:15:04;;;;;;;;;;;;;;;28.85;41.28;100623.19;5048875;28;1914;-41
2022/07/25 10:17:29;;;;;;;;;;;;;;;28.94;41.49;100616.59;5068830;28;974;-40
2022/07/25 10:19:55;;;;;;;;;;;;;;;29.00;40.92;100619.56;5051442;28;926;-41
2022/07/25 10:22:20;;;;;;;;;;;;;;;28.88;41.21;100611.97;5078049;28;1119;-41
2022/07/25 10:24:46;;;;;;;;;;;;;;;28.92;40.81;100612.41;5065197;28;1302;-42
2022/07/25 10:27:12;;;;;;;;;;;;;;;29.03;40.45;100605.63;5073298;28;973;-43
2022/07/25 10:29:38;;;;;;;;;;;;;;;29.21;40.44;100597.78;5067267;28;1234;-42
2022/07/25 10:32:10;;;;;;;;;;;;;;;29.28;40.44;100594.31;5065420;28;1337;-40
2022/07/25 10:34:35;;;;;;;;;;;;;;;29.32;40.48;100595.56;5072277;28;1969;-43
2022/07/25 10:37:10;;;;;;;;;;;;;;;29.26;39.42;100586.34;5068616;28;997;-40
2022/07/25 10:39:39;;;;;;;;;;;;;;;29.46;40.44;100589.16;5065394;28;1237;-45
2022/07/25 10:42:04;;;;;;;;;;;;;;;29.40;40.22;100589.97;5055757;28;1124;-38
2022/07/25 10:45:08;;;;;;;;;;;;;;;29.61;39.25;100579.22;5073590;28;1258;-40
2022/07/25 10:47:36;;;;;;;;;;;;;;;29.64;40.34;100581.53;5029059;28;1217;-44
2022/07/25 10:50:02;;;;;;;;;;;;;;;29.68;40.35;100574.63;5056988;28;1216;-39
2022/07/25 10:52:27;;;;;;;;;;;;;;;29.53;39.96;100577.50;5071369;28;1427;-39
2022/07/25 10:54:56;;;;;;;;;;;;;;;29.28;40.46;100569.91;5072729;28;1909;-39
2022/07/25 10:57:22;;;;;;;;;;;;;;;29.32;40.88;100565.75;5067365;28;1053;-41
2022/07/25 10:59:47;;;;;;;;;;;;;;;29.43;40.13;100561.59;5049546;28;1273;-40
2022/07/25 11:02:15;;;;;;;;;;;;;;;29.50;40.92;100557.06;5066827;28;1194;-41
2022/07/25 11:05:00;;;;;;;;;;;;;;;29.39;39.90;100552.22;5069876;28;1184;-40
2022/07/25 11:07:27;;;;;;;;;;;;;;;29.26;40.75;100539.47;5063953;28;925;-42
2022/07/25 11:10:00;;;;;;;;;;;;;;;29.23;40.55;100546.13;5063706;28;1013;-42
2022/07/25 11:12:25;;;;;;;;;;;;;;;28.60;47.34;100555.97;5071851;28;1072;-44
2022/07/25 11:14:54;;;;;;;;;;;;;;;28.53;47.44;100555.13;5067300;28;1913;-45
2022/07/25 11:17:21;;;;;;;;;;;;;;;28.62;48.33;100553.91;5052381;28;1025;-44
2022/07/25 11:19:53;;;;;;;;;;;;;;;28.68;48.51;100554.97;5073388;28;1167;-42
2022/07/25 11:22:18;;;;;;;;;;;;;;;29.62;45.10;100554.63;5073371;28;1006;-37
2022/07/25 11:24:44;;;;;;;;;;;;;;;30.09;43.94;100553.00;5068539;28;989;-39
2022/07/25 11:27:10;;;;;;;;;;;;;;;30.07;43.51;100558.63;5066604;28;1168;-37
2022/07/25 11:29:39;;;;;;;;;;;;;;;30.61;43.20;100574.09;5068240;28;1207;-38
2022/07/25 11:32:05;;;;;;;;;;;;;;;30.71;42.81;100554.66;5067529;28;1452;-40
2022/07/25 11:34:34;;;;;;;;;;;;;;;30.30;43.90;100554.69;5066849;28;1897;-40
2022/07/25 11:37:00;;;;;;;;;;;;;;;30.65;42.76;100559.88;5075529;28;1076;-39
2022/07/25 11:39:26;;;;;;;;;;;;;;;30.71;42.47;100560.09;5075468;28;961;-39
2022/07/25 11:41:59;;;;;;;;;;;;;;;30.65;42.40;100550.91;5055648;28;1187;-39
2022/07/25 11:44:31;;;;;;;;;;;;;;;30.49;43.18;100549.47;5072458;28;976;-41
2022/07/25 11:46:56;;;;;;;;;;;;;;;26.41;50.38;100556.38;5064099;28;1155;-38
2022/07/25 11:49:21;;;;;;;;;;;;;;;24.82;50.75;100517.88;5070416;28;1028;-42
2022/07/25 11:51:46;;;;;;;;;;;;;;;23.73;54.70;100525.16;5065800;28;852;-42
2022/07/25 11:54:12;;;;;;;;;;;;;;;23.43;54.59;100519.38;5074017;28;1097;-43
2022/07/25 11:56:37;;;;;;;;;;;;;;;23.11;55.02;100514.56;5069028;28;1898;-41
2022/07/25 11:59:03;;;;;;;;;;;;;;;22.75;55.47;100518.22;5072662;28;945;-41
2022/07/25 12:01:35;;;;;;;;;;;;;;;22.58;56.07;100519.09;5069753;28;1060;-40
2022/07/25 12:04:07;;;;;;;;;;;;;;;22.40;55.85;100514.66;5068522;28;973;-41
2022/07/25 12:06:32;;;;;;;;;;;;;;;22.27;56.65;100518.56;5059987;28;930;-39
2022/07/25 12:08:58;;;;;;;;;;;;;;;22.14;56.99;100526.16;5073895;28;1054;-39
2022/07/25 12:11:23;;;;;;;;;;;;;;;22.11;59.13;100526.47;5048620;28;1310;-39
2022/07/25 12:13:48;;;;;;;;;;;;;;;25.23;51.22;100532.19;5082093;28;1008;-40
2022/07/25 12:16:14;;;;;;;;;;;;;;;26.74;50.73;100536.31;5072511;28;1965;-38
2022/07/25 12:18:39;;;;;;;;;;;;;;;27.81;44.82;100535.13;5064659;28;894;-40
2022/07/25 12:21:04;;;;;;;;;;;;;;;28.21;44.85;100537.34;5066918;28;1038;-40
2022/07/25 12:23:30;;;;;;;;;;;;;;;28.44;45.71;100528.22;5062497;28;1199;-41
2022/07/25 12:25:55;;;;;;;;;;;;;;;28.24;43.11;100536.97;5070038;28;1005;-42
2022/07/25 12:28:20;;;;;;;;;;;;;;;27.54;44.01;100539.41;5065831;28;1040;-41
2022/07/25 12:30:46;;;;;;;;;;;;;;;26.99;38.66;100533.31;5073992;28;859;-43
2022/07/25 12:33:11;;;;;;;;;;;;;;;26.69;36.83;100538.75;5064716;28;1059;-41
2022/07/25 12:35:37;;;;;;;;;;;;;;;26.59;42.93;100528.19;5063042;28;1901;-41
2022/07/25 12:38:02;;;;;;;;;;;;;;;26.49;36.10;100520.38;5067093;28;1040;-42
2022/07/25 12:40:28;;;;;;;;;;;;;;;27.41;38.65;100522.00;5055559;28;998;-40
2022/07/25 12:42:53;;;;;;;;;;;;;;;28.23;36.11;100510.94;5053704;28;1072;-41